sensor_id;sensor_type;location;lat;lon;timestamp;temperature;humidity
34572;DHT22;20808;48.974;8.452;2023-09-08T00:00:13;19.70;1.00
34572;DHT22;20808;48.974;8.452;2023-09-08T00:00:28;19.50;1.00
34572;DHT22;20808;48.974;8.452;2023-09-08T00:00:45;19.80;1.00
34572;DHT22;20808;48.974;8.452;2023-09-08T00:01:01;19.80;1.00
34572;DHT22;20808;48.974;8.452;2023-09-08T00:01:17;19.70;1.00
34572;DHT22;20808;48.974;8.452;2023-09-08T00:01:33;19.60;1.00
34572;DHT22;20808;48.974;8.452;2023-09-08T00:01:49;19.50;1.00
34572;DHT22;20808;48.974;8.452;2023-09-08T00:02:06;19.60;1.00
34572;DHT22;20808;48.974;8.452;2023-09-08T00:02:23;19.60;1.00
34572;DHT22;20808;48.974;8.452;2023-09-08T00:02:39;19.60;1.00
34572;DHT22;20808;48.974;8.452;2023-09-08T00:02:55;19.60;1.00
34572;DHT22;20808;48.974;8.452;2023-09-08T00:03:11;19.50;1.00
34572;DHT22;20808;48.974;8.452;2023-09-08T00:03:27;19.80;1.00
34572;DHT22;20808;48.974;8.452;2023-09-08T00:03:43;19.50;1.00
34572;DHT22;20808;48.974;8.452;2023-09-08T00:03:58;19.60;1.00
34572;DHT22;20808;48.974;8.452;2023-09-08T00:04:15;19.60;1.00
34572;DHT22;20808;48.974;8.452;2023-09-08T00:04:31;19.80;1.00
34572;DHT22;20808;48.974;8.452;2023-09-08T00:04:48;19.60;1.00
34572;DHT22;20808;48.974;8.452;2023-09-08T00:05:04;19.60;1.00
34572;DHT22;20808;48.974;8.452;2023-09-08T00:05:20;19.50;1.00
34572;DHT22;20808;48.974;8.452;2023-09-08T00:05:35;19.70;1.00
34572;DHT22;20808;48.974;8.452;2023-09-08T00:05:51;19.60;1.00
34572;DHT22;20808;48.974;8.452;2023-09-08T00:06:08;19.60;1.00
34572;DHT22;20808;48.974;8.452;2023-09-08T00:06:24;19.70;1.00
34572;DHT22;20808;48.974;8.452;2023-09-08T00:06:40;19.60;1.00
34572;DHT22;20808;48.974;8.452;2023-09-08T00:06:56;19.50;1.00
34572;DHT22;20808;48.974;8.452;2023-09-08T00:07:11;19.70;1.00
34572;DHT22;20808;48.974;8.452;2023-09-08T00:07:27;19.70;1.00
34572;DHT22;20808;48.974;8.452;2023-09-08T00:07:43;19.50;1.00
34572;DHT22;20808;48.974;8.452;2023-09-08T00:08:00;19.70;1.00
34572;DHT22;20808;48.974;8.452;2023-09-08T00:08:15;19.60;1.00
34572;DHT22;20808;48.974;8.452;2023-09-08T00:08:31;19.40;1.00
34572;DHT22;20808;48.974;8.452;2023-09-08T00:08:47;19.80;1.00
34572;DHT22;20808;48.974;8.452;2023-09-08T00:09:03;19.50;1.00
34572;DHT22;20808;48.974;8.452;2023-09-08T00:09:19;19.70;1.00
34572;DHT22;20808;48.974;8.452;2023-09-08T00:09:35;19.70;1.00
34572;DHT22;20808;48.974;8.452;2023-09-08T00:09:52;19.70;1.00
34572;DHT22;20808;48.974;8.452;2023-09-08T00:10:08;19.70;1.00
34572;DHT22;20808;48.974;8.452;2023-09-08T00:10:24;19.80;1.00
34572;DHT22;20808;48.974;8.452;2023-09-08T00:10:40;19.60;1.00
34572;DHT22;20808;48.974;8.452;2023-09-08T00:10:55;19.70;1.00
34572;DHT22;20808;48.974;8.452;2023-09-08T00:11:11;19.60;1.00
34572;DHT22;20808;48.974;8.452;2023-09-08T00:11:27;19.50;1.00
34572;DHT22;20808;48.974;8.452;2023-09-08T00:11:44;19.40;1.00
34572;DHT22;20808;48.974;8.452;2023-09-08T00:12:00;19.60;1.00
34572;DHT22;20808;48.974;8.452;2023-09-08T00:12:16;19.50;1.00
34572;DHT22;20808;48.974;8.452;2023-09-08T00:12:32;19.50;1.00
34572;DHT22;20808;48.974;8.452;2023-09-08T00:12:48;19.70;1.00
34572;DHT22;20808;48.974;8.452;2023-09-08T00:13:05;19.50;1.00
34572;DHT22;20808;48.974;8.452;2023-09-08T00:13:21;19.60;1.00
34572;DHT22;20808;48.974;8.452;2023-09-08T00:13:36;19.70;1.00
34572;DHT22;20808;48.974;8.452;2023-09-08T00:13:52;19.70;1.00
34572;DHT22;20808;48.974;8.452;2023-09-08T00:14:08;19.70;1.00
34572;DHT22;20808;48.974;8.452;2023-09-08T00:14:24;19.70;1.00
34572;DHT22;20808;48.974;8.452;2023-09-08T00:14:40;19.60;1.00
34572;DHT22;20808;48.974;8.452;2023-09-08T00:14:55;19.70;1.00
34572;DHT22;20808;48.974;8.452;2023-09-08T00:15:12;19.80;1.00
34572;DHT22;20808;48.974;8.452;2023-09-08T00:15:28;19.60;1.00
34572;DHT22;20808;48.974;8.452;2023-09-08T00:15:44;19.60;1.00
34572;DHT22;20808;48.974;8.452;2023-09-08T00:16:00;19.70;1.00
34572;DHT22;20808;48.974;8.452;2023-09-08T00:16:15;19.70;1.00
34572;DHT22;20808;48.974;8.452;2023-09-08T00:16:31;19.50;1.00
34572;DHT22;20808;48.974;8.452;2023-09-08T00:16:47;19.50;1.00
34572;DHT22;20808;48.974;8.452;2023-09-08T00:17:05;19.60;1.00
34572;DHT22;20808;48.974;8.452;2023-09-08T00:17:21;19.50;1.00
34572;DHT22;20808;48.974;8.452;2023-09-08T00:17:37;19.70;1.00
34572;DHT22;20808;48.974;8.452;2023-09-08T00:17:53;19.60;1.00
34572;DHT22;20808;48.974;8.452;2023-09-08T00:18:09;19.60;1.00
34572;DHT22;20808;48.974;8.452;2023-09-08T00:18:25;19.60;1.00
34572;DHT22;20808;48.974;8.452;2023-09-08T00:18:41;19.70;1.00
34572;DHT22;20808;48.974;8.452;2023-09-08T00:18:58;19.50;1.00
34572;DHT22;20808;48.974;8.452;2023-09-08T00:19:14;19.50;1.00
34572;DHT22;20808;48.974;8.452;2023-09-08T00:19:30;19.60;1.00
34572;DHT22;20808;48.974;8.452;2023-09-08T00:19:46;19.70;1.00
34572;DHT22;20808;48.974;8.452;2023-09-08T00:20:02;19.60;1.00
34572;DHT22;20808;48.974;8.452;2023-09-08T00:20:20;19.60;1.00
34572;DHT22;20808;48.974;8.452;2023-09-08T00:20:36;19.80;1.00
34572;DHT22;20808;48.974;8.452;2023-09-08T00:20:52;19.60;1.00
34572;DHT22;20808;48.974;8.452;2023-09-08T00:21:08;19.50;1.00
34572;DHT22;20808;48.974;8.452;2023-09-08T00:21:25;19.50;1.00
34572;DHT22;20808;48.974;8.452;2023-09-08T00:21:40;19.50;1.00
34572;DHT22;20808;48.974;8.452;2023-09-08T00:21:58;19.30;1.00
34572;DHT22;20808;48.974;8.452;2023-09-08T00:22:14;19.60;1.00
34572;DHT22;20808;48.974;8.452;2023-09-08T00:22:30;19.50;1.00
34572;DHT22;20808;48.974;8.452;2023-09-08T00:22:46;19.70;1.00
34572;DHT22;20808;48.974;8.452;2023-09-08T00:23:03;19.60;1.00
34572;DHT22;20808;48.974;8.452;2023-09-08T00:23:18;19.60;1.00
34572;DHT22;20808;48.974;8.452;2023-09-08T00:23:34;19.60;1.00
34572;DHT22;20808;48.974;8.452;2023-09-08T00:23:50;19.70;1.00
34572;DHT22;20808;48.974;8.452;2023-09-08T00:24:06;19.80;1.00
34572;DHT22;20808;48.974;8.452;2023-09-08T00:24:22;19.80;1.00
34572;DHT22;20808;48.974;8.452;2023-09-08T00:24:38;19.60;1.00
34572;DHT22;20808;48.974;8.452;2023-09-08T00:24:55;19.60;1.00
34572;DHT22;20808;48.974;8.452;2023-09-08T00:25:11;19.70;1.00
34572;DHT22;20808;48.974;8.452;2023-09-08T00:25:27;19.80;1.00
34572;DHT22;20808;48.974;8.452;2023-09-08T00:25:42;19.70;1.00
34572;DHT22;20808;48.974;8.452;2023-09-08T00:25:58;19.50;1.00
34572;DHT22;20808;48.974;8.452;2023-09-08T00:26:14;19.60;1.00
34572;DHT22;20808;48.974;8.452;2023-09-08T00:26:32;19.60;1.00
34572;DHT22;20808;48.974;8.452;2023-09-08T00:26:47;19.80;1.00
34572;DHT22;20808;48.974;8.452;2023-09-08T00:27:04;19.50;1.00
34572;DHT22;20808;48.974;8.452;2023-09-08T00:27:19;19.40;1.00
34572;DHT22;20808;48.974;8.452;2023-09-08T00:27:35;19.30;1.00
34572;DHT22;20808;48.974;8.452;2023-09-08T00:27:51;19.60;1.00
34572;DHT22;20808;48.974;8.452;2023-09-08T00:28:07;19.80;1.00
34572;DHT22;20808;48.974;8.452;2023-09-08T00:28:24;19.60;1.00
34572;DHT22;20808;48.974;8.452;2023-09-08T00:28:40;19.50;1.00
34572;DHT22;20808;48.974;8.452;2023-09-08T00:28:56;19.40;1.00
34572;DHT22;20808;48.974;8.452;2023-09-08T00:29:11;19.60;1.00
34572;DHT22;20808;48.974;8.452;2023-09-08T00:29:27;19.60;1.00
34572;DHT22;20808;48.974;8.452;2023-09-08T00:29:43;19.80;1.00
34572;DHT22;20808;48.974;8.452;2023-09-08T00:29:59;19.50;1.00
34572;DHT22;20808;48.974;8.452;2023-09-08T00:30:17;19.70;1.00
34572;DHT22;20808;48.974;8.452;2023-09-08T00:30:34;19.50;1.00
34572;DHT22;20808;48.974;8.452;2023-09-08T00:30:50;19.50;1.00
34572;DHT22;20808;48.974;8.452;2023-09-08T00:31:05;19.40;1.00
34572;DHT22;20808;48.974;8.452;2023-09-08T00:31:21;19.60;1.00
34572;DHT22;20808;48.974;8.452;2023-09-08T00:31:37;19.60;1.00
34572;DHT22;20808;48.974;8.452;2023-09-08T00:31:53;19.50;1.00
34572;DHT22;20808;48.974;8.452;2023-09-08T00:32:10;19.50;1.00
34572;DHT22;20808;48.974;8.452;2023-09-08T00:32:26;19.50;1.00
34572;DHT22;20808;48.974;8.452;2023-09-08T00:32:43;19.40;1.00
34572;DHT22;20808;48.974;8.452;2023-09-08T00:32:59;19.40;1.00
34572;DHT22;20808;48.974;8.452;2023-09-08T00:33:15;19.50;1.00
34572;DHT22;20808;48.974;8.452;2023-09-08T00:33:30;19.60;1.00
34572;DHT22;20808;48.974;8.452;2023-09-08T00:33:46;19.60;1.00
34572;DHT22;20808;48.974;8.452;2023-09-08T00:34:02;19.70;1.00
34572;DHT22;20808;48.974;8.452;2023-09-08T00:34:18;19.70;1.00
34572;DHT22;20808;48.974;8.452;2023-09-08T00:34:34;19.40;1.00
34572;DHT22;20808;48.974;8.452;2023-09-08T00:34:50;19.50;1.00
34572;DHT22;20808;48.974;8.452;2023-09-08T00:35:06;19.50;1.00
34572;DHT22;20808;48.974;8.452;2023-09-08T00:35:22;19.50;1.00
34572;DHT22;20808;48.974;8.452;2023-09-08T00:35:38;19.40;1.00
34572;DHT22;20808;48.974;8.452;2023-09-08T00:35:54;19.70;1.00
34572;DHT22;20808;48.974;8.452;2023-09-08T00:36:12;19.50;1.00
34572;DHT22;20808;48.974;8.452;2023-09-08T00:36:30;19.40;1.00
34572;DHT22;20808;48.974;8.452;2023-09-08T00:36:46;19.50;1.00
34572;DHT22;20808;48.974;8.452;2023-09-08T00:37:02;19.70;1.00
34572;DHT22;20808;48.974;8.452;2023-09-08T00:37:38;19.50;1.00
34572;DHT22;20808;48.974;8.452;2023-09-08T00:37:54;19.50;1.00
34572;DHT22;20808;48.974;8.452;2023-09-08T00:38:11;19.50;1.00
34572;DHT22;20808;48.974;8.452;2023-09-08T00:38:27;19.50;1.00
34572;DHT22;20808;48.974;8.452;2023-09-08T00:38:43;19.50;1.00
34572;DHT22;20808;48.974;8.452;2023-09-08T00:38:58;19.50;1.00
34572;DHT22;20808;48.974;8.452;2023-09-08T00:39:14;19.50;1.00
34572;DHT22;20808;48.974;8.452;2023-09-08T00:39:30;19.40;1.00
34572;DHT22;20808;48.974;8.452;2023-09-08T00:39:46;19.40;1.00
34572;DHT22;20808;48.974;8.452;2023-09-08T00:40:03;19.20;1.00
34572;DHT22;20808;48.974;8.452;2023-09-08T00:40:19;19.60;1.00
34572;DHT22;20808;48.974;8.452;2023-09-08T00:40:35;19.40;1.00
34572;DHT22;20808;48.974;8.452;2023-09-08T00:40:51;19.30;1.00
34572;DHT22;20808;48.974;8.452;2023-09-08T00:41:06;19.50;1.00
34572;DHT22;20808;48.974;8.452;2023-09-08T00:41:22;19.40;1.00
34572;DHT22;20808;48.974;8.452;2023-09-08T00:41:39;19.40;1.00
34572;DHT22;20808;48.974;8.452;2023-09-08T00:41:54;19.50;1.00
34572;DHT22;20808;48.974;8.452;2023-09-08T00:42:10;19.60;1.00
34572;DHT22;20808;48.974;8.452;2023-09-08T00:42:27;19.30;1.00
34572;DHT22;20808;48.974;8.452;2023-09-08T00:42:43;19.40;1.00
34572;DHT22;20808;48.974;8.452;2023-09-08T00:42:59;19.40;1.00
34572;DHT22;20808;48.974;8.452;2023-09-08T00:43:14;19.30;1.00
34572;DHT22;20808;48.974;8.452;2023-09-08T00:43:30;19.40;1.00
34572;DHT22;20808;48.974;8.452;2023-09-08T00:43:46;19.30;3.00
34572;DHT22;20808;48.974;8.452;2023-09-08T00:44:02;19.40;9.10
34572;DHT22;20808;48.974;8.452;2023-09-08T00:44:20;19.20;6.90
34572;DHT22;20808;48.974;8.452;2023-09-08T00:44:35;19.50;7.90
34572;DHT22;20808;48.974;8.452;2023-09-08T00:44:51;19.40;12.70
34572;DHT22;20808;48.974;8.452;2023-09-08T00:45:07;19.40;14.00
34572;DHT22;20808;48.974;8.452;2023-09-08T00:45:23;19.30;20.70
34572;DHT22;20808;48.974;8.452;2023-09-08T00:45:42;19.20;22.50
34572;DHT22;20808;48.974;8.452;2023-09-08T00:45:58;19.30;29.50
34572;DHT22;20808;48.974;8.452;2023-09-08T00:46:14;19.40;36.20
34572;DHT22;20808;48.974;8.452;2023-09-08T00:46:31;19.20;37.10
34572;DHT22;20808;48.974;8.452;2023-09-08T00:46:47;19.40;42.50
34572;DHT22;20808;48.974;8.452;2023-09-08T00:47:03;19.40;54.40
34572;DHT22;20808;48.974;8.452;2023-09-08T00:47:20;19.40;62.60
34572;DHT22;20808;48.974;8.452;2023-09-08T00:47:36;19.20;77.60
34572;DHT22;20808;48.974;8.452;2023-09-08T00:47:52;19.20;83.80
34572;DHT22;20808;48.974;8.452;2023-09-08T00:48:08;19.00;84.90
34572;DHT22;20808;48.974;8.452;2023-09-08T00:48:25;19.20;91.70
34572;DHT22;20808;48.974;8.452;2023-09-08T00:48:41;19.10;97.50
34572;DHT22;20808;48.974;8.452;2023-09-08T00:48:57;19.20;99.90
34572;DHT22;20808;48.974;8.452;2023-09-08T00:49:13;19.00;99.90
34572;DHT22;20808;48.974;8.452;2023-09-08T00:49:29;19.10;99.90
34572;DHT22;20808;48.974;8.452;2023-09-08T00:49:45;19.30;99.90
34572;DHT22;20808;48.974;8.452;2023-09-08T00:50:03;19.00;99.90
34572;DHT22;20808;48.974;8.452;2023-09-08T00:50:19;19.00;99.90
34572;DHT22;20808;48.974;8.452;2023-09-08T00:50:36;18.80;99.90
34572;DHT22;20808;48.974;8.452;2023-09-08T00:50:52;19.10;99.90
34572;DHT22;20808;48.974;8.452;2023-09-08T00:51:08;19.20;99.90
34572;DHT22;20808;48.974;8.452;2023-09-08T00:51:25;19.10;99.90
34572;DHT22;20808;48.974;8.452;2023-09-08T00:51:41;19.00;99.90
34572;DHT22;20808;48.974;8.452;2023-09-08T00:51:57;18.90;99.90
34572;DHT22;20808;48.974;8.452;2023-09-08T00:52:14;19.00;99.90
34572;DHT22;20808;48.974;8.452;2023-09-08T00:52:30;18.90;99.90
34572;DHT22;20808;48.974;8.452;2023-09-08T00:52:48;18.90;99.90
34572;DHT22;20808;48.974;8.452;2023-09-08T00:53:05;18.90;99.90
34572;DHT22;20808;48.974;8.452;2023-09-08T00:53:21;18.70;99.90
34572;DHT22;20808;48.974;8.452;2023-09-08T00:53:37;19.20;99.90
34572;DHT22;20808;48.974;8.452;2023-09-08T00:53:53;19.00;99.90
34572;DHT22;20808;48.974;8.452;2023-09-08T00:54:10;18.80;99.90
34572;DHT22;20808;48.974;8.452;2023-09-08T00:54:26;19.00;99.90
34572;DHT22;20808;48.974;8.452;2023-09-08T00:54:42;19.00;99.90
34572;DHT22;20808;48.974;8.452;2023-09-08T00:54:58;19.00;99.90
34572;DHT22;20808;48.974;8.452;2023-09-08T00:55:14;18.80;99.90
34572;DHT22;20808;48.974;8.452;2023-09-08T00:55:30;19.00;99.90
34572;DHT22;20808;48.974;8.452;2023-09-08T00:55:46;18.80;99.90
34572;DHT22;20808;48.974;8.452;2023-09-08T00:56:03;18.90;99.90
34572;DHT22;20808;48.974;8.452;2023-09-08T00:56:20;18.90;99.90
34572;DHT22;20808;48.974;8.452;2023-09-08T00:56:37;18.80;99.90
34572;DHT22;20808;48.974;8.452;2023-09-08T00:56:55;18.90;99.90
34572;DHT22;20808;48.974;8.452;2023-09-08T00:57:11;19.10;99.90
34572;DHT22;20808;48.974;8.452;2023-09-08T00:57:27;19.00;99.90
34572;DHT22;20808;48.974;8.452;2023-09-08T00:57:43;18.90;99.90
34572;DHT22;20808;48.974;8.452;2023-09-08T00:58:01;18.80;99.90
34572;DHT22;20808;48.974;8.452;2023-09-08T00:58:17;18.80;99.90
34572;DHT22;20808;48.974;8.452;2023-09-08T00:58:33;18.80;99.90
34572;DHT22;20808;48.974;8.452;2023-09-08T00:58:49;19.10;99.90
34572;DHT22;20808;48.974;8.452;2023-09-08T00:59:05;18.90;99.90
34572;DHT22;20808;48.974;8.452;2023-09-08T00:59:21;18.90;99.90
34572;DHT22;20808;48.974;8.452;2023-09-08T00:59:38;18.80;99.90
34572;DHT22;20808;48.974;8.452;2023-09-08T00:59:55;18.80;99.90
34572;DHT22;20808;48.974;8.452;2023-09-08T01:00:12;18.60;99.90
34572;DHT22;20808;48.974;8.452;2023-09-08T01:00:28;18.60;99.90
34572;DHT22;20808;48.974;8.452;2023-09-08T01:00:44;18.90;99.90
34572;DHT22;20808;48.974;8.452;2023-09-08T01:01:00;18.80;99.90
34572;DHT22;20808;48.974;8.452;2023-09-08T01:01:16;18.60;99.90
34572;DHT22;20808;48.974;8.452;2023-09-08T01:01:32;18.80;99.90
34572;DHT22;20808;48.974;8.452;2023-09-08T01:01:50;18.70;99.90
34572;DHT22;20808;48.974;8.452;2023-09-08T01:02:06;18.80;99.90
34572;DHT22;20808;48.974;8.452;2023-09-08T01:02:23;18.90;99.90
34572;DHT22;20808;48.974;8.452;2023-09-08T01:02:39;18.80;99.90
34572;DHT22;20808;48.974;8.452;2023-09-08T01:02:55;18.70;99.90
34572;DHT22;20808;48.974;8.452;2023-09-08T01:03:11;18.50;99.90
34572;DHT22;20808;48.974;8.452;2023-09-08T01:03:27;18.90;99.90
34572;DHT22;20808;48.974;8.452;2023-09-08T01:03:43;18.90;99.90
34572;DHT22;20808;48.974;8.452;2023-09-08T01:03:59;18.80;99.90
34572;DHT22;20808;48.974;8.452;2023-09-08T01:04:15;18.70;99.90
34572;DHT22;20808;48.974;8.452;2023-09-08T01:04:31;18.80;99.90
34572;DHT22;20808;48.974;8.452;2023-09-08T01:04:49;18.70;99.90
34572;DHT22;20808;48.974;8.452;2023-09-08T01:05:06;18.60;99.90
34572;DHT22;20808;48.974;8.452;2023-09-08T01:05:22;18.80;99.90
34572;DHT22;20808;48.974;8.452;2023-09-08T01:05:39;18.80;1.00
34572;DHT22;20808;48.974;8.452;2023-09-08T01:05:55;18.70;1.00
34572;DHT22;20808;48.974;8.452;2023-09-08T01:06:11;18.70;1.00
34572;DHT22;20808;48.974;8.452;2023-09-08T01:06:28;18.80;1.00
34572;DHT22;20808;48.974;8.452;2023-09-08T01:06:45;18.70;1.00
34572;DHT22;20808;48.974;8.452;2023-09-08T01:07:01;18.70;1.00
34572;DHT22;20808;48.974;8.452;2023-09-08T01:07:19;18.70;1.00
34572;DHT22;20808;48.974;8.452;2023-09-08T01:07:36;18.50;1.00
34572;DHT22;20808;48.974;8.452;2023-09-08T01:07:52;18.70;1.00
34572;DHT22;20808;48.974;8.452;2023-09-08T01:08:09;18.70;1.00
34572;DHT22;20808;48.974;8.452;2023-09-08T01:08:25;18.70;1.00
34572;DHT22;20808;48.974;8.452;2023-09-08T01:08:42;18.80;1.00
34572;DHT22;20808;48.974;8.452;2023-09-08T01:09:00;18.60;1.00
34572;DHT22;20808;48.974;8.452;2023-09-08T01:09:16;19.00;1.00
34572;DHT22;20808;48.974;8.452;2023-09-08T01:09:32;18.60;1.00
34572;DHT22;20808;48.974;8.452;2023-09-08T01:09:49;18.70;1.00
34572;DHT22;20808;48.974;8.452;2023-09-08T01:10:06;18.80;1.00
34572;DHT22;20808;48.974;8.452;2023-09-08T01:10:22;18.70;1.00
34572;DHT22;20808;48.974;8.452;2023-09-08T01:10:38;18.70;1.00
34572;DHT22;20808;48.974;8.452;2023-09-08T01:10:57;18.60;1.00
34572;DHT22;20808;48.974;8.452;2023-09-08T01:11:13;18.70;1.00
34572;DHT22;20808;48.974;8.452;2023-09-08T01:11:29;18.60;1.00
34572;DHT22;20808;48.974;8.452;2023-09-08T01:11:46;18.70;1.00
34572;DHT22;20808;48.974;8.452;2023-09-08T01:12:03;18.50;1.00
34572;DHT22;20808;48.974;8.452;2023-09-08T01:12:19;18.70;1.00
34572;DHT22;20808;48.974;8.452;2023-09-08T01:12:36;18.80;1.00
34572;DHT22;20808;48.974;8.452;2023-09-08T01:12:52;18.70;1.00
34572;DHT22;20808;48.974;8.452;2023-09-08T01:13:08;18.60;1.00
34572;DHT22;20808;48.974;8.452;2023-09-08T01:13:24;18.80;1.00
34572;DHT22;20808;48.974;8.452;2023-09-08T01:13:40;18.50;1.00
34572;DHT22;20808;48.974;8.452;2023-09-08T01:13:56;18.80;1.00
34572;DHT22;20808;48.974;8.452;2023-09-08T01:14:12;18.60;1.00
34572;DHT22;20808;48.974;8.452;2023-09-08T01:14:29;18.60;1.00
34572;DHT22;20808;48.974;8.452;2023-09-08T01:14:45;18.60;1.00
34572;DHT22;20808;48.974;8.452;2023-09-08T01:15:01;18.80;1.00
34572;DHT22;20808;48.974;8.452;2023-09-08T01:15:16;18.40;1.00
34572;DHT22;20808;48.974;8.452;2023-09-08T01:15:32;18.60;1.00
34572;DHT22;20808;48.974;8.452;2023-09-08T01:15:49;18.80;1.00
34572;DHT22;20808;48.974;8.452;2023-09-08T01:16:05;18.90;1.00
34572;DHT22;20808;48.974;8.452;2023-09-08T01:16:20;18.80;1.00
34572;DHT22;20808;48.974;8.452;2023-09-08T01:16:36;18.60;1.00
34572;DHT22;20808;48.974;8.452;2023-09-08T01:16:55;18.70;1.00
34572;DHT22;20808;48.974;8.452;2023-09-08T01:17:11;18.40;1.00
34572;DHT22;20808;48.974;8.452;2023-09-08T01:17:29;18.50;1.00
34572;DHT22;20808;48.974;8.452;2023-09-08T01:17:45;18.50;1.00
34572;DHT22;20808;48.974;8.452;2023-09-08T01:18:00;18.80;1.00
34572;DHT22;20808;48.974;8.452;2023-09-08T01:18:16;18.60;1.00
34572;DHT22;20808;48.974;8.452;2023-09-08T01:18:32;18.60;1.00
34572;DHT22;20808;48.974;8.452;2023-09-08T01:18:49;18.60;1.00
34572;DHT22;20808;48.974;8.452;2023-09-08T01:19:11;18.70;1.00
34572;DHT22;20808;48.974;8.452;2023-09-08T01:19:28;18.80;1.00
34572;DHT22;20808;48.974;8.452;2023-09-08T01:19:46;18.60;1.00
34572;DHT22;20808;48.974;8.452;2023-09-08T01:20:06;18.50;1.00
34572;DHT22;20808;48.974;8.452;2023-09-08T01:20:35;18.80;1.00
34572;DHT22;20808;48.974;8.452;2023-09-08T01:21:29;18.70;1.00
34572;DHT22;20808;48.974;8.452;2023-09-08T01:22:11;18.60;1.00
34572;DHT22;20808;48.974;8.452;2023-09-08T01:22:45;18.40;1.00
34572;DHT22;20808;48.974;8.452;2023-09-08T01:23:15;18.30;1.00
34572;DHT22;20808;48.974;8.452;2023-09-08T01:23:46;18.70;1.00
34572;DHT22;20808;48.974;8.452;2023-09-08T01:24:21;18.50;1.00
34572;DHT22;20808;48.974;8.452;2023-09-08T01:25:35;18.50;1.00
34572;DHT22;20808;48.974;8.452;2023-09-08T01:26:01;18.50;1.00
34572;DHT22;20808;48.974;8.452;2023-09-08T01:26:20;18.60;1.00
34572;DHT22;20808;48.974;8.452;2023-09-08T01:26:40;18.50;1.00
34572;DHT22;20808;48.974;8.452;2023-09-08T01:26:56;18.30;1.00
34572;DHT22;20808;48.974;8.452;2023-09-08T01:27:12;18.40;1.00
34572;DHT22;20808;48.974;8.452;2023-09-08T01:27:33;18.40;1.00
34572;DHT22;20808;48.974;8.452;2023-09-08T01:27:52;18.50;1.00
34572;DHT22;20808;48.974;8.452;2023-09-08T01:28:10;18.40;1.00
34572;DHT22;20808;48.974;8.452;2023-09-08T01:28:27;18.50;1.00
34572;DHT22;20808;48.974;8.452;2023-09-08T01:28:45;18.40;1.00
34572;DHT22;20808;48.974;8.452;2023-09-08T01:29:05;18.30;1.00
34572;DHT22;20808;48.974;8.452;2023-09-08T01:29:23;18.50;1.00
34572;DHT22;20808;48.974;8.452;2023-09-08T01:29:42;18.30;1.00
34572;DHT22;20808;48.974;8.452;2023-09-08T01:29:58;18.60;1.00
34572;DHT22;20808;48.974;8.452;2023-09-08T01:30:16;18.50;1.00
34572;DHT22;20808;48.974;8.452;2023-09-08T01:30:32;18.40;1.00
34572;DHT22;20808;48.974;8.452;2023-09-08T01:30:49;18.50;1.00
34572;DHT22;20808;48.974;8.452;2023-09-08T01:31:07;18.50;1.00
34572;DHT22;20808;48.974;8.452;2023-09-08T01:31:23;18.30;1.00
34572;DHT22;20808;48.974;8.452;2023-09-08T01:31:39;18.60;1.00
34572;DHT22;20808;48.974;8.452;2023-09-08T01:31:55;18.30;1.00
34572;DHT22;20808;48.974;8.452;2023-09-08T01:32:11;18.20;1.00
34572;DHT22;20808;48.974;8.452;2023-09-08T01:32:28;18.30;1.00
34572;DHT22;20808;48.974;8.452;2023-09-08T01:32:45;18.50;1.00
34572;DHT22;20808;48.974;8.452;2023-09-08T01:33:02;18.20;1.00
34572;DHT22;20808;48.974;8.452;2023-09-08T01:33:18;18.50;1.00
34572;DHT22;20808;48.974;8.452;2023-09-08T01:33:35;18.20;1.00
34572;DHT22;20808;48.974;8.452;2023-09-08T01:33:51;18.20;1.00
34572;DHT22;20808;48.974;8.452;2023-09-08T01:34:08;18.50;1.00
34572;DHT22;20808;48.974;8.452;2023-09-08T01:34:24;18.20;1.00
34572;DHT22;20808;48.974;8.452;2023-09-08T01:34:40;18.20;1.00
34572;DHT22;20808;48.974;8.452;2023-09-08T01:34:58;18.20;1.00
34572;DHT22;20808;48.974;8.452;2023-09-08T01:35:14;18.20;1.00
34572;DHT22;20808;48.974;8.452;2023-09-08T01:35:32;18.10;1.00
34572;DHT22;20808;48.974;8.452;2023-09-08T01:35:48;18.40;1.00
34572;DHT22;20808;48.974;8.452;2023-09-08T01:36:04;18.20;1.00
34572;DHT22;20808;48.974;8.452;2023-09-08T01:36:20;18.30;1.00
34572;DHT22;20808;48.974;8.452;2023-09-08T01:36:36;18.20;1.00
34572;DHT22;20808;48.974;8.452;2023-09-08T01:36:52;18.10;1.00
34572;DHT22;20808;48.974;8.452;2023-09-08T01:37:08;18.20;1.00
34572;DHT22;20808;48.974;8.452;2023-09-08T01:37:24;18.40;1.00
34572;DHT22;20808;48.974;8.452;2023-09-08T01:37:41;18.20;1.00
34572;DHT22;20808;48.974;8.452;2023-09-08T01:37:58;18.30;1.00
34572;DHT22;20808;48.974;8.452;2023-09-08T01:38:14;18.50;1.00
34572;DHT22;20808;48.974;8.452;2023-09-08T01:38:30;18.40;1.00
34572;DHT22;20808;48.974;8.452;2023-09-08T01:38:46;18.20;1.00
34572;DHT22;20808;48.974;8.452;2023-09-08T01:39:02;18.50;1.00
34572;DHT22;20808;48.974;8.452;2023-09-08T01:39:18;18.30;1.00
34572;DHT22;20808;48.974;8.452;2023-09-08T01:39:34;18.20;1.00
34572;DHT22;20808;48.974;8.452;2023-09-08T01:39:51;18.40;1.00
34572;DHT22;20808;48.974;8.452;2023-09-08T01:40:08;18.30;1.00
34572;DHT22;20808;48.974;8.452;2023-09-08T01:40:24;18.30;1.00
34572;DHT22;20808;48.974;8.452;2023-09-08T01:40:41;18.20;1.00
34572;DHT22;20808;48.974;8.452;2023-09-08T01:40:57;18.20;1.00
34572;DHT22;20808;48.974;8.452;2023-09-08T01:41:13;18.20;1.00
34572;DHT22;20808;48.974;8.452;2023-09-08T01:41:29;18.30;1.00
34572;DHT22;20808;48.974;8.452;2023-09-08T01:41:46;18.30;1.00
34572;DHT22;20808;48.974;8.452;2023-09-08T01:42:03;18.20;1.00
34572;DHT22;20808;48.974;8.452;2023-09-08T01:42:19;18.00;1.00
34572;DHT22;20808;48.974;8.452;2023-09-08T01:42:34;18.40;1.00
34572;DHT22;20808;48.974;8.452;2023-09-08T01:42:51;18.40;1.00
34572;DHT22;20808;48.974;8.452;2023-09-08T01:43:06;18.20;1.00
34572;DHT22;20808;48.974;8.452;2023-09-08T01:43:22;18.40;1.00
34572;DHT22;20808;48.974;8.452;2023-09-08T01:43:39;18.30;1.00
34572;DHT22;20808;48.974;8.452;2023-09-08T01:43:55;18.10;1.00
34572;DHT22;20808;48.974;8.452;2023-09-08T01:44:11;18.30;1.00
34572;DHT22;20808;48.974;8.452;2023-09-08T01:44:27;18.20;1.00
34572;DHT22;20808;48.974;8.452;2023-09-08T01:44:43;18.10;1.00
34572;DHT22;20808;48.974;8.452;2023-09-08T01:44:59;18.00;1.00
34572;DHT22;20808;48.974;8.452;2023-09-08T01:45:15;18.10;1.00
34572;DHT22;20808;48.974;8.452;2023-09-08T01:45:32;18.30;1.00
34572;DHT22;20808;48.974;8.452;2023-09-08T01:45:47;18.10;1.00
34572;DHT22;20808;48.974;8.452;2023-09-08T01:46:03;18.20;1.00
34572;DHT22;20808;48.974;8.452;2023-09-08T01:46:19;18.20;1.00
34572;DHT22;20808;48.974;8.452;2023-09-08T01:46:35;18.20;8.70
34572;DHT22;20808;48.974;8.452;2023-09-08T01:46:51;18.30;1.00
34572;DHT22;20808;48.974;8.452;2023-09-08T01:47:12;18.20;19.80
34572;DHT22;20808;48.974;8.452;2023-09-08T01:47:29;18.20;38.10
34572;DHT22;20808;48.974;8.452;2023-09-08T01:47:46;18.00;60.90
34572;DHT22;20808;48.974;8.452;2023-09-08T01:48:02;18.20;28.80
34572;DHT22;20808;48.974;8.452;2023-09-08T01:48:17;18.00;3.10
34572;DHT22;20808;48.974;8.452;2023-09-08T01:48:33;18.10;1.00